createdAt,value
2022-12-05T00:02:00.306Z,40.33
2022-12-05T00:04:28.497Z,41.08
2022-12-05T00:06:58.308Z,40.30
2022-12-05T00:09:26.315Z,39.55
2022-12-05T00:11:54.811Z,40.83
2022-12-05T00:14:23.004Z,38.83
2022-12-05T00:16:51.221Z,38.80
2022-12-05T00:19:20.280Z,39.45
2022-12-05T00:21:48.267Z,37.85
2022-12-05T00:24:18.601Z,38.05
2022-12-05T00:26:46.710Z,39.45
2022-12-05T00:29:14.860Z,38.00
2022-12-05T00:31:43.644Z,37.53
2022-12-05T00:34:11.987Z,35.47
2022-12-05T00:36:40.940Z,37.05
2022-12-05T00:39:11.646Z,35.78
2022-12-05T00:41:41.717Z,36.03
2022-12-05T00:44:11.714Z,35.33
2022-12-05T00:46:40.332Z,34.33
2022-12-05T00:49:12.534Z,35.97
2022-12-05T00:51:42.467Z,36.15
2022-12-05T00:54:12.343Z,32.42
2022-12-05T00:56:42.609Z,32.40
2022-12-05T00:59:15.705Z,33.40
2022-12-05T01:01:46.061Z,32.50
2022-12-05T01:04:16.998Z,32.42
2022-12-05T01:06:45.274Z,33.10
2022-12-05T01:09:15.987Z,31.58
2022-12-05T01:11:45.815Z,34.58
2022-12-05T01:14:15.528Z,33.50
2022-12-05T01:16:47.069Z,32.35
2022-12-05T01:19:17.773Z,29.85
2022-12-05T01:21:47.412Z,32.45
2022-12-05T01:24:15.921Z,32.67
2022-12-05T01:26:46.551Z,31.83
2022-12-05T01:29:17.268Z,29.27
2022-12-05T01:31:46.557Z,31.52
2022-12-05T01:34:16.978Z,30.92
2022-12-05T01:36:45.666Z,28.13
2022-12-05T01:39:14.745Z,30.85
2022-12-05T01:41:47.308Z,31.08
2022-12-05T01:44:53.000Z,30.80
2022-12-05T01:47:23.578Z,29.65
2022-12-05T01:49:52.040Z,29.52
2022-12-05T01:52:23.619Z,29.77
2022-12-05T01:54:56.345Z,30.10
2022-12-05T01:57:27.509Z,28.80
2022-12-05T02:00:05.967Z,27.30
2022-12-05T02:02:34.782Z,30.27
2022-12-05T02:05:07.409Z,30.08
2022-12-05T02:07:39.191Z,30.80
2022-12-05T02:10:09.235Z,31.33
2022-12-05T02:12:39.883Z,32.03
2022-12-05T02:15:19.627Z,33.47
2022-12-05T02:17:55.529Z,32.75
2022-12-05T02:20:37.593Z,32.88
2022-12-05T02:23:44.234Z,34.10
2022-12-05T02:26:53.828Z,34.50
2022-12-05T02:29:58.649Z,34.70
2022-12-05T02:32:38.393Z,35.95
2022-12-05T02:35:17.922Z,35.72
2022-12-05T02:37:55.944Z,37.22
2022-12-05T02:40:29.763Z,38.75
2022-12-05T02:43:04.020Z,36.35
2022-12-05T02:45:38.479Z,38.50
2022-12-05T02:48:07.550Z,40.10
2022-12-05T02:50:39.042Z,39.47
2022-12-05T02:53:12.588Z,40.35
2022-12-05T02:55:43.161Z,42.25
2022-12-05T02:58:17.742Z,41.97
2022-12-05T03:00:50.963Z,40.67
2022-12-05T03:03:22.902Z,40.80
2022-12-05T03:05:57.174Z,40.03
2022-12-05T03:08:31.485Z,38.50
2022-12-05T03:11:03.081Z,40.23
2022-12-05T03:13:37.845Z,42.33
2022-12-05T03:16:13.131Z,41.88
2022-12-05T03:21:24.259Z,38.88
2022-12-05T03:23:57.566Z,41.10
2022-12-05T03:26:37.902Z,40.47
2022-12-05T03:29:21.683Z,38.28
2022-12-05T03:31:59.554Z,39.28
2022-12-05T03:34:39.394Z,37.13
2022-12-05T03:37:14.283Z,38.72
2022-12-05T03:39:50.571Z,38.65
2022-12-05T03:42:28.953Z,39.70
2022-12-05T03:45:01.863Z,38.03
2022-12-05T03:47:40.255Z,35.55
2022-12-05T03:50:14.262Z,37.35
2022-12-05T03:53:17.878Z,35.63
2022-12-05T03:55:40.554Z,35.58
2022-12-05T03:58:12.092Z,34.38
2022-12-05T04:00:44.688Z,36.65
2022-12-05T04:03:19.901Z,36.67
2022-12-05T04:08:24.137Z,32.25
2022-12-05T04:10:55.218Z,34.45
2022-12-05T04:13:30.577Z,32.28
2022-12-05T04:16:21.245Z,34.45
2022-12-05T04:18:59.458Z,33.33
2022-12-05T04:21:40.975Z,33.45
2022-12-05T04:24:32.363Z,31.00
2022-12-05T04:27:10.842Z,32.63
2022-12-05T04:29:46.212Z,33.55
2022-12-05T04:32:16.107Z,36.08
2022-12-05T04:34:51.984Z,35.58
2022-12-05T04:37:26.828Z,37.05
2022-12-05T04:40:00.610Z,36.95
2022-12-05T04:42:32.444Z,38.13
2022-12-05T04:45:05.400Z,37.30
2022-12-05T04:47:38.909Z,37.45
2022-12-05T04:50:12.465Z,38.90
2022-12-05T04:52:41.858Z,35.17
2022-12-05T04:55:13.517Z,36.47
2022-12-05T04:57:46.788Z,35.33
2022-12-05T05:00:15.897Z,35.65
2022-12-05T05:02:49.262Z,34.70
2022-12-05T05:05:22.018Z,35.88
2022-12-05T05:07:53.100Z,34.83
2022-12-05T05:10:27.490Z,34.47
2022-12-05T05:12:56.909Z,35.00
2022-12-05T05:15:25.196Z,35.00
2022-12-05T05:17:53.173Z,35.83
2022-12-05T05:20:25.985Z,35.92
2022-12-05T05:22:55.866Z,34.22
2022-12-05T05:25:24.615Z,34.97
2022-12-05T05:27:54.579Z,36.22
2022-12-05T05:30:25.378Z,36.80
2022-12-05T05:32:53.696Z,36.88
2022-12-05T05:35:23.678Z,35.53
2022-12-05T05:37:52.488Z,38.58
2022-12-05T05:40:20.731Z,37.15
2022-12-05T05:42:51.066Z,36.92
2022-12-05T05:45:19.191Z,38.88
2022-12-05T05:47:49.498Z,38.67
2022-12-05T05:50:21.664Z,37.55
2022-12-05T05:52:52.065Z,36.47
2022-12-05T05:55:22.911Z,36.15
2022-12-05T05:57:51.246Z,35.25
2022-12-05T06:00:20.231Z,37.28
2022-12-05T06:02:49.223Z,35.55
2022-12-05T06:05:18.160Z,37.58
2022-12-05T06:07:46.286Z,37.42
2022-12-05T06:10:16.421Z,36.78
2022-12-05T06:12:45.690Z,35.95
2022-12-05T06:15:14.416Z,37.55
2022-12-05T06:17:42.874Z,36.97
2022-12-05T06:20:12.863Z,36.38
2022-12-05T06:22:40.974Z,34.45
2022-12-05T06:25:11.289Z,37.40
2022-12-05T06:27:40.647Z,36.17
2022-12-05T06:30:10.679Z,34.47
2022-12-05T06:32:38.898Z,34.47
2022-12-05T06:35:15.808Z,34.95
2022-12-05T06:37:44.891Z,35.60
2022-12-05T06:40:13.560Z,33.88
2022-12-05T06:42:43.684Z,34.50
2022-12-05T06:45:14.222Z,33.35
2022-12-05T06:47:42.858Z,30.75
2022-12-05T06:50:13.126Z,30.65
2022-12-05T06:52:41.537Z,31.27
2022-12-05T06:55:11.609Z,32.78
2022-12-05T06:57:40.008Z,33.50
2022-12-05T07:00:29.288Z,32.78
2022-12-05T07:02:57.684Z,33.20
2022-12-05T07:05:25.890Z,31.02
2022-12-05T07:07:54.722Z,31.77
2022-12-05T07:13:06.042Z,31.92
2022-12-05T07:15:37.214Z,32.88
2022-12-05T07:18:07.964Z,30.70
2022-12-05T07:21:03.851Z,32.10
2022-12-05T07:23:27.717Z,30.20
2022-12-05T07:25:57.886Z,29.98
2022-12-05T07:28:27.494Z,30.70
2022-12-05T07:31:03.729Z,30.30
2022-12-05T07:33:34.758Z,27.85
2022-12-05T07:36:05.554Z,28.55
2022-12-05T07:38:36.244Z,28.40
2022-12-05T07:41:13.096Z,29.63
2022-12-05T07:43:45.830Z,29.33
2022-12-05T07:46:23.950Z,29.23
2022-12-05T07:48:54.516Z,28.15
2022-12-05T07:51:25.746Z,28.65
2022-12-05T07:53:54.383Z,28.08
2022-12-05T07:56:24.722Z,28.67
2022-12-05T07:58:54.774Z,28.00
2022-12-05T08:02:03.846Z,30.52
2022-12-05T08:04:33.135Z,28.80
2022-12-05T08:07:04.367Z,29.58
2022-12-05T08:09:49.703Z,30.23
2022-12-05T08:12:25.977Z,28.85
2022-12-05T08:15:19.512Z,30.25
2022-12-05T08:18:07.910Z,30.40
2022-12-05T08:20:40.137Z,28.85
2022-12-05T08:23:10.969Z,27.95
2022-12-05T08:25:45.378Z,26.52
2022-12-05T08:28:15.665Z,27.65
2022-12-05T08:30:46.456Z,28.67
2022-12-05T08:33:25.111Z,28.92
2022-12-05T08:35:57.101Z,30.63
2022-12-05T08:38:27.965Z,30.55
2022-12-05T08:40:57.017Z,28.27
2022-12-05T08:43:27.119Z,28.25
2022-12-05T08:46:01.314Z,27.90
2022-12-05T08:48:37.072Z,28.40
2022-12-05T08:51:09.608Z,28.15
2022-12-05T08:56:45.454Z,28.08
2022-12-05T08:59:14.495Z,27.27
2022-12-05T09:01:44.193Z,27.48
2022-12-05T09:04:15.208Z,26.98
2022-12-05T09:06:48.093Z,28.80
2022-12-05T09:09:17.239Z,25.98
2022-12-05T09:11:51.899Z,25.65
2022-12-05T09:14:23.340Z,24.63
2022-12-05T09:16:53.614Z,25.63
2022-12-05T09:19:27.714Z,24.15
2022-12-05T09:21:58.654Z,25.00
2022-12-05T09:24:30.456Z,24.23
2022-12-05T09:26:58.617Z,24.02
2022-12-05T09:29:30.678Z,22.85
2022-12-05T09:31:59.867Z,24.48
2022-12-05T09:34:31.145Z,25.45
2022-12-05T09:37:16.631Z,27.98
2022-12-05T09:39:51.321Z,24.73
2022-12-05T09:42:36.938Z,23.80
2022-12-05T09:45:15.522Z,22.67
2022-12-05T09:47:51.153Z,22.58
2022-12-05T09:50:33.363Z,23.60
2022-12-05T09:53:10.701Z,23.17
2022-12-05T09:55:46.679Z,22.42
2022-12-05T09:58:23.790Z,21.50
2022-12-05T10:01:06.277Z,22.23
2022-12-05T10:03:49.074Z,22.35
2022-12-05T10:06:27.623Z,22.65
2022-12-05T10:09:22.076Z,22.05
2022-12-05T10:12:00.755Z,21.40
2022-12-05T10:14:37.864Z,20.88
2022-12-05T10:17:17.135Z,21.17
2022-12-05T10:19:49.279Z,21.27
2022-12-05T10:22:25.201Z,20.38
2022-12-05T10:25:01.331Z,22.58
2022-12-05T10:27:39.995Z,22.13
2022-12-05T10:30:18.987Z,21.33
2022-12-05T10:33:04.999Z,21.83
2022-12-05T10:35:39.980Z,21.38
2022-12-05T10:38:16.548Z,22.10
2022-12-05T10:40:52.408Z,19.67
2022-12-05T10:43:35.496Z,19.08
2022-12-05T10:46:07.256Z,18.75
2022-12-05T10:48:39.617Z,18.50
2022-12-05T10:51:12.844Z,18.70
2022-12-05T10:53:53.642Z,18.40
2022-12-05T10:56:51.766Z,18.33
2022-12-05T10:59:22.487Z,19.90
2022-12-05T11:01:57.921Z,17.67
2022-12-05T11:04:31.135Z,17.50
2022-12-05T11:07:15.985Z,18.95
2022-12-05T11:10:26.168Z,19.40
2022-12-05T11:13:16.249Z,18.73
2022-12-05T11:18:50.806Z,18.35
2022-12-05T11:21:21.042Z,19.70
2022-12-05T11:23:50.246Z,20.92
2022-12-05T11:26:21.543Z,20.30
2022-12-05T11:28:51.077Z,20.50
2022-12-05T11:31:34.393Z,20.85
2022-12-05T11:34:11.898Z,20.80
2022-12-05T11:36:44.322Z,20.50
2022-12-05T11:39:14.424Z,25.63
2022-12-05T11:41:56.909Z,32.10
2022-12-05T11:44:50.923Z,20.50
2022-12-05T11:50:41.869Z,19.77
2022-12-05T11:57:29.315Z,17.40
2022-12-05T12:00:45.447Z,16.92
2022-12-05T12:03:57.838Z,15.75
2022-12-05T12:06:30.927Z,14.85
2022-12-05T12:09:33.296Z,13.57
2022-12-05T12:12:07.802Z,14.38
2022-12-05T12:17:46.290Z,22.13
2022-12-05T12:20:47.874Z,16.40
2022-12-05T12:23:42.953Z,16.63
2022-12-05T12:26:16.964Z,14.75
2022-12-05T12:28:56.140Z,15.40
2022-12-05T12:31:37.081Z,19.35
2022-12-05T12:34:23.060Z,15.88
2022-12-05T12:36:57.553Z,14.90
2022-12-05T12:39:36.710Z,15.80
2022-12-05T12:42:22.426Z,15.77
2022-12-05T12:47:42.216Z,15.65
2022-12-05T12:50:19.220Z,20.30
2022-12-05T12:53:15.774Z,16.02
2022-12-05T12:55:51.185Z,15.48
2022-12-05T12:58:37.464Z,16.85
2022-12-05T13:01:15.121Z,16.45
2022-12-05T13:03:51.704Z,17.05
2022-12-05T13:06:24.964Z,16.85
2022-12-05T13:08:58.834Z,15.43
2022-12-05T13:11:30.538Z,18.25
2022-12-05T13:14:04.957Z,17.40
2022-12-05T13:16:41.108Z,15.87
2022-12-05T13:19:27.459Z,16.75
2022-12-05T13:21:58.597Z,20.48
2022-12-05T13:24:30.863Z,17.85
2022-12-05T13:27:01.386Z,16.30
2022-12-05T13:29:35.376Z,18.70
2022-12-05T13:32:05.859Z,17.10
2022-12-05T13:34:55.564Z,15.93
2022-12-05T13:37:44.053Z,16.48
2022-12-05T13:40:49.895Z,16.13
2022-12-05T13:43:20.557Z,15.90
2022-12-05T13:46:06.679Z,17.40
2022-12-05T13:48:38.537Z,17.05
2022-12-05T13:51:10.414Z,16.90
2022-12-05T13:53:43.658Z,18.58
2022-12-05T13:56:28.751Z,20.77
2022-12-05T13:58:58.027Z,18.60
2022-12-05T14:01:55.937Z,15.60
2022-12-05T14:04:51.110Z,15.38
2022-12-05T14:07:39.365Z,16.42
2022-12-05T14:10:09.233Z,15.20
2022-12-05T14:12:55.121Z,17.98
2022-12-05T14:15:33.850Z,15.57
2022-12-05T14:18:06.528Z,15.25
2022-12-05T14:21:01.754Z,15.68
2022-12-05T14:23:46.249Z,16.57
2022-12-05T14:26:33.118Z,17.10
2022-12-05T14:29:18.008Z,16.98
2022-12-05T14:32:04.428Z,12.55
2022-12-05T14:34:35.529Z,17.23
2022-12-05T14:37:06.293Z,16.63
2022-12-05T14:39:42.214Z,15.85
2022-12-05T14:42:28.193Z,16.58
2022-12-05T14:45:00.309Z,15.77
2022-12-05T14:47:31.786Z,17.38
2022-12-05T14:50:04.471Z,18.67
2022-12-05T14:52:34.460Z,17.50
2022-12-05T14:55:07.946Z,16.60
2022-12-05T14:57:39.325Z,16.85
2022-12-05T15:00:20.926Z,16.17
2022-12-05T15:02:52.348Z,16.50
2022-12-05T15:05:25.710Z,16.65
2022-12-05T15:07:55.133Z,18.38
2022-12-05T15:10:25.901Z,18.40
2022-12-05T15:12:58.412Z,17.08
2022-12-05T15:15:37.639Z,14.75
2022-12-05T15:18:16.040Z,16.63
2022-12-05T15:20:50.550Z,17.45
2022-12-05T15:23:44.081Z,18.35
2022-12-05T15:26:45.461Z,19.27
2022-12-05T15:29:10.882Z,18.38
2022-12-05T15:31:47.619Z,19.10
2022-12-05T15:34:19.801Z,19.05
2022-12-05T15:36:52.455Z,23.00
2022-12-05T15:39:26.227Z,21.63
2022-12-05T15:41:55.069Z,20.25
2022-12-05T15:44:28.193Z,21.85
2022-12-05T15:47:00.306Z,22.52
2022-12-05T15:49:30.541Z,22.13
2022-12-05T15:52:07.334Z,22.02
2022-12-05T15:54:39.674Z,21.73
2022-12-05T15:57:15.163Z,22.23
2022-12-05T15:59:47.869Z,28.70
2022-12-05T16:02:23.271Z,34.63
2022-12-05T16:04:55.383Z,36.22
2022-12-05T16:07:25.030Z,27.85
2022-12-05T16:09:58.008Z,25.73
2022-12-05T16:12:32.617Z,25.67
2022-12-05T16:15:06.195Z,25.33
2022-12-05T16:17:44.297Z,24.75
2022-12-05T16:20:25.706Z,26.30
2022-12-05T16:22:56.455Z,22.63
2022-12-05T16:25:26.867Z,22.15
2022-12-05T16:28:13.239Z,21.48
2022-12-05T16:30:41.837Z,17.00
2022-12-05T16:33:16.454Z,17.48
2022-12-05T16:35:47.194Z,20.13
2022-12-05T16:38:20.005Z,18.23
2022-12-05T16:40:57.316Z,17.48
2022-12-05T16:43:29.429Z,18.48
2022-12-05T16:46:00.377Z,17.48
2022-12-05T16:48:32.025Z,15.80
2022-12-05T16:51:18.863Z,14.73
2022-12-05T16:53:49.344Z,16.98
2022-12-05T16:56:21.563Z,16.45
2022-12-05T16:58:49.922Z,16.67
2022-12-05T17:01:20.451Z,17.77
2022-12-05T17:03:50.380Z,19.15
2022-12-05T17:06:19.902Z,21.20
2022-12-05T17:08:47.965Z,18.95
2022-12-05T17:11:18.841Z,19.10
2022-12-05T17:13:48.815Z,16.90
2022-12-05T17:16:17.342Z,17.23
2022-12-05T17:18:45.245Z,16.42
2022-12-05T17:21:17.855Z,17.55
2022-12-05T17:23:48.253Z,16.35
2022-12-05T17:26:21.015Z,16.83
2022-12-05T17:28:50.614Z,18.27
2022-12-05T17:31:21.162Z,20.73
2022-12-05T17:33:50.497Z,19.02
2022-12-05T17:36:21.127Z,17.75
2022-12-05T17:38:49.917Z,17.55
2022-12-05T17:41:19.757Z,16.60
2022-12-05T17:43:48.161Z,16.08
2022-12-05T17:46:19.060Z,16.85
2022-12-05T17:48:47.063Z,16.92
2022-12-05T17:51:16.046Z,16.80
2022-12-05T17:53:45.600Z,18.25
2022-12-05T17:56:14.559Z,18.58
2022-12-05T17:58:43.038Z,18.77
2022-12-05T18:01:15.069Z,22.38
2022-12-05T18:03:43.576Z,30.35
2022-12-05T18:06:11.701Z,29.08
2022-12-05T18:08:40.155Z,31.05
2022-12-05T18:11:10.040Z,35.45
2022-12-05T18:13:37.916Z,34.38
2022-12-05T18:16:07.023Z,38.90
2022-12-05T18:18:35.059Z,35.33
2022-12-05T18:21:08.518Z,36.67
2022-12-05T18:23:38.116Z,38.47
2022-12-05T18:26:07.410Z,33.50
2022-12-05T18:28:39.171Z,31.13
2022-12-05T18:31:09.833Z,34.38
2022-12-05T18:33:38.364Z,35.47
2022-12-05T18:36:09.245Z,34.95
2022-12-05T18:38:37.789Z,36.00
2022-12-05T18:41:06.997Z,38.72
2022-12-05T18:43:37.403Z,38.97
2022-12-05T18:46:05.836Z,34.17
2022-12-05T18:48:41.740Z,34.75
2022-12-05T18:51:15.637Z,33.42
2022-12-05T18:53:51.506Z,32.30
2022-12-05T18:56:23.198Z,33.10
2022-12-05T18:58:57.658Z,33.83
2022-12-05T19:01:28.037Z,30.52
2022-12-05T19:03:57.171Z,34.28
2022-12-05T19:06:27.913Z,33.15
2022-12-05T19:08:57.209Z,32.45
2022-12-05T19:11:27.212Z,30.45
2022-12-05T19:13:58.713Z,33.95
2022-12-05T19:16:28.532Z,34.42
2022-12-05T19:18:58.761Z,32.45
2022-12-05T19:21:28.349Z,33.15
2022-12-05T19:23:57.901Z,34.55
2022-12-05T19:26:26.730Z,32.55
2022-12-05T19:28:55.230Z,36.53
2022-12-05T19:31:26.287Z,37.42
2022-12-05T19:33:57.276Z,36.03
2022-12-05T19:36:26.825Z,35.55
2022-12-05T19:38:56.787Z,32.50
2022-12-05T19:41:26.050Z,31.77
2022-12-05T19:43:54.985Z,30.50
2022-12-05T19:46:26.061Z,32.38
2022-12-05T19:48:54.721Z,31.83
2022-12-05T19:51:22.723Z,32.97
2022-12-05T19:53:51.555Z,32.67
2022-12-05T19:56:21.684Z,33.25
2022-12-05T19:58:51.494Z,31.75
2022-12-05T20:01:22.566Z,33.75
2022-12-05T20:03:54.931Z,31.90
2022-12-05T20:06:23.812Z,32.00
2022-12-05T20:08:55.046Z,31.65
2022-12-05T20:11:25.078Z,28.98
2022-12-05T20:13:54.987Z,29.88
2022-12-05T20:16:26.697Z,33.53
2022-12-05T20:18:58.632Z,35.08
2022-12-05T20:21:28.233Z,33.65
2022-12-05T20:23:56.474Z,34.72
2022-12-05T20:26:26.533Z,32.05
2022-12-05T20:28:56.332Z,35.83
2022-12-05T20:31:26.598Z,36.25
2022-12-05T20:33:56.404Z,33.35
2022-12-05T20:36:27.262Z,32.13
2022-12-05T20:38:59.034Z,32.40
2022-12-05T20:41:27.753Z,28.92
2022-12-05T20:43:57.561Z,26.73
2022-12-05T20:46:26.753Z,29.48
2022-12-05T20:48:57.362Z,28.77
2022-12-05T20:51:27.717Z,29.08
2022-12-05T20:53:56.846Z,29.85
2022-12-05T20:56:27.356Z,28.88
2022-12-05T20:58:57.626Z,30.42
2022-12-05T21:01:28.067Z,28.02
2022-12-05T21:03:57.286Z,32.45
2022-12-05T21:06:26.647Z,36.35
2022-12-05T21:08:55.676Z,33.47
2022-12-05T21:11:25.534Z,31.08
2022-12-05T21:13:55.868Z,29.35
2022-12-05T21:16:24.483Z,26.25
2022-12-05T21:18:53.522Z,28.60
2022-12-05T21:21:25.041Z,29.55
2022-12-05T21:23:54.970Z,29.98
2022-12-05T21:26:23.374Z,31.15
2022-12-05T21:28:51.652Z,30.17
2022-12-05T21:31:22.239Z,29.17
2022-12-05T21:33:51.821Z,29.00
2022-12-05T21:36:20.764Z,29.52
2022-12-05T21:38:55.596Z,29.05
2022-12-05T21:43:55.041Z,27.75
2022-12-05T21:46:24.223Z,26.98
2022-12-05T21:48:52.270Z,28.30
2022-12-05T21:51:20.330Z,28.77
2022-12-05T21:53:49.969Z,26.33
2022-12-05T21:56:22.649Z,28.27
2022-12-05T21:58:51.477Z,25.80
2022-12-05T22:01:21.245Z,25.17
2022-12-05T22:03:52.800Z,25.98
2022-12-05T22:06:20.865Z,25.88
2022-12-05T22:08:50.228Z,26.85
2022-12-05T22:11:20.107Z,24.23
2022-12-05T22:13:48.842Z,22.55
2022-12-05T22:16:19.096Z,25.42
2022-12-05T22:18:48.596Z,23.88
2022-12-05T22:21:19.076Z,27.58
2022-12-05T22:23:47.970Z,24.77
2022-12-05T22:26:18.650Z,21.77
2022-12-05T22:28:47.181Z,24.30
2022-12-05T22:31:16.468Z,23.67
2022-12-05T22:33:45.136Z,22.20
2022-12-05T22:36:14.961Z,22.20
2022-12-05T22:38:44.533Z,23.65
2022-12-05T22:41:15.825Z,24.92
2022-12-05T22:43:46.821Z,24.13
2022-12-05T22:46:18.308Z,20.45
2022-12-05T22:48:46.887Z,21.00
2022-12-05T22:51:16.123Z,18.67
2022-12-05T22:53:44.027Z,16.52
2022-12-05T22:56:14.102Z,16.63
2022-12-05T22:58:44.984Z,16.42
2022-12-05T23:01:15.098Z,13.60
2022-12-05T23:03:44.789Z,15.18
2022-12-05T23:06:15.178Z,14.65
2022-12-05T23:08:44.944Z,14.93
2022-12-05T23:11:13.895Z,13.13
2022-12-05T23:13:41.850Z,14.68
2022-12-05T23:16:14.561Z,13.25
2022-12-05T23:18:49.678Z,13.23
2022-12-05T23:21:20.773Z,14.35
2022-12-05T23:23:49.870Z,14.10
2022-12-05T23:26:19.363Z,13.35
2022-12-05T23:28:47.563Z,14.95
2022-12-05T23:31:17.783Z,14.30
2022-12-05T23:33:48.518Z,14.38
2022-12-05T23:36:19.800Z,15.27
2022-12-05T23:38:48.037Z,16.05
2022-12-05T23:41:18.634Z,13.45
2022-12-05T23:43:47.771Z,15.27
2022-12-05T23:46:19.231Z,15.60
2022-12-05T23:48:48.289Z,15.35
2022-12-05T23:51:18.637Z,15.25
2022-12-05T23:53:48.360Z,14.95
2022-12-05T23:56:18.838Z,13.63
2022-12-05T23:58:48.315Z,13.80
